logo
Search for airport 
image banner adimage banner adimage banner ad
image banner ad

YMTI - Mornington Island

Located in Mornington Island, Australia

ICAO - YMTI, IATA - ONG

Data provided by Airmate  

General information

Coordinates: S16°39'45" E139°10'41"
Elevation is 33 feet MSL.
 
View others Airports in Queensland

Operational data

Special qualification required
Current time UTC:
Current local time:
Weather at : - ( 0 km )
METAR: KCWA 141647Z 23009KT 10SM CLR 26/19 A2992
View NOTAMs / SUP AIP / TFR affecting this airport [VIEW]
Communications frequencies: [VIEW]

Runways:

RWY identifierQFULength (ft)Width (ft)SurfaceLDA (ft)
0998°497098PER
27278°497098PER

Airport contact information

Address: Mornington Island Australia

Satellite view of YMTI